createdAt,value
2018-06-29T00:01:49.769Z,14.62
2018-06-29T00:04:24.217Z,14.59
2018-06-29T00:06:58.236Z,14.66
2018-06-29T00:09:32.480Z,14.59
2018-06-29T00:12:06.479Z,14.59
2018-06-29T00:14:40.486Z,14.40
2018-06-29T00:17:14.541Z,14.34
2018-06-29T00:19:48.926Z,14.45
2018-06-29T00:22:23.067Z,14.36
2018-06-29T00:24:57.281Z,14.31
2018-06-29T00:27:32.069Z,14.45
2018-06-29T00:30:06.357Z,14.43
2018-06-29T00:32:40.541Z,14.29
2018-06-29T00:35:14.670Z,14.30
2018-06-29T00:37:48.711Z,14.33
2018-06-29T00:40:23.460Z,14.43
2018-06-29T00:42:57.658Z,14.28
2018-06-29T00:45:31.743Z,14.31
2018-06-29T00:48:05.858Z,14.33
2018-06-29T00:50:40.214Z,14.32
2018-06-29T00:53:14.386Z,14.35
2018-06-29T00:55:50.540Z,14.36
2018-06-29T00:58:24.650Z,14.37
2018-06-29T01:00:58.784Z,14.29
2018-06-29T01:03:34.279Z,14.26
2018-06-29T01:06:08.269Z,14.34
2018-06-29T01:08:42.453Z,14.35
2018-06-29T01:11:17.004Z,14.27
2018-06-29T01:13:51.578Z,14.26
2018-06-29T01:16:25.809Z,14.42
2018-06-29T01:18:59.845Z,14.35
2018-06-29T01:21:33.947Z,14.33
2018-06-29T01:24:08.196Z,14.30
2018-06-29T01:26:43.049Z,14.30
2018-06-29T01:29:17.138Z,14.31
2018-06-29T01:31:51.976Z,14.26
2018-06-29T01:34:26.092Z,14.31
2018-06-29T01:37:00.121Z,14.19
2018-06-29T01:39:34.279Z,14.11
2018-06-29T01:42:08.947Z,14.14
2018-06-29T01:44:42.853Z,14.16
2018-06-29T01:47:18.433Z,14.20
2018-06-29T01:49:53.443Z,14.19
2018-06-29T01:52:27.563Z,14.24
2018-06-29T01:55:01.798Z,14.14
2018-06-29T01:57:35.846Z,14.17
2018-06-29T02:00:10.971Z,14.18
2018-06-29T02:02:44.913Z,14.21
2018-06-29T02:05:19.594Z,14.30
2018-06-29T02:07:53.624Z,14.28
2018-06-29T02:10:27.742Z,14.22
2018-06-29T02:13:02.482Z,14.21
2018-06-29T02:15:36.935Z,14.16
2018-06-29T02:18:11.190Z,14.26
2018-06-29T02:20:45.488Z,14.18
2018-06-29T02:23:19.827Z,14.15
2018-06-29T02:25:53.953Z,14.29
2018-06-29T02:28:28.191Z,14.50
2018-06-29T02:31:02.599Z,14.65
2018-06-29T02:33:36.861Z,14.71
2018-06-29T02:36:10.950Z,14.73
2018-06-29T02:38:45.004Z,14.74
2018-06-29T02:41:19.177Z,14.77
2018-06-29T02:43:53.637Z,14.81
2018-06-29T02:46:27.777Z,14.70
2018-06-29T02:49:02.387Z,14.70
2018-06-29T02:51:37.065Z,14.67
2018-06-29T02:54:11.280Z,14.63
2018-06-29T02:56:45.304Z,14.58
2018-06-29T02:59:19.760Z,14.69
2018-06-29T03:01:53.972Z,14.59
2018-06-29T03:04:28.186Z,14.65
2018-06-29T03:07:02.059Z,14.61
2018-06-29T03:09:36.267Z,14.63
2018-06-29T03:12:10.162Z,14.62
2018-06-29T03:14:45.363Z,14.53
2018-06-29T03:17:20.349Z,14.47
2018-06-29T03:19:54.901Z,14.33
2018-06-29T03:22:28.936Z,14.36
2018-06-29T03:25:04.080Z,14.43
2018-06-29T03:27:39.454Z,14.46
2018-06-29T03:30:13.670Z,14.61
2018-06-29T03:32:48.016Z,14.56
2018-06-29T03:35:23.036Z,14.70
2018-06-29T03:37:57.628Z,14.82
2018-06-29T03:40:32.073Z,14.97
2018-06-29T03:43:06.208Z,15.15
2018-06-29T03:45:40.306Z,15.21
2018-06-29T03:48:14.970Z,15.34
2018-06-29T03:50:49.665Z,15.37
2018-06-29T03:53:23.919Z,15.39
2018-06-29T03:55:58.213Z,15.36
2018-06-29T03:58:34.389Z,15.34
2018-06-29T04:01:08.644Z,15.38
2018-06-29T04:03:43.895Z,15.42
2018-06-29T04:06:18.210Z,15.43
2018-06-29T04:08:52.200Z,15.47
2018-06-29T04:11:26.161Z,15.43
2018-06-29T04:14:00.158Z,15.55
2018-06-29T04:16:34.637Z,15.64
2018-06-29T04:19:08.826Z,15.65
2018-06-29T04:21:43.174Z,15.70
2018-06-29T04:24:17.517Z,15.80
2018-06-29T04:26:51.729Z,15.80
2018-06-29T04:29:25.880Z,15.89
2018-06-29T04:32:00.125Z,15.90
2018-06-29T04:34:34.535Z,15.93
2018-06-29T04:37:09.466Z,15.96
2018-06-29T04:39:43.866Z,16.00
2018-06-29T04:42:17.936Z,15.99
2018-06-29T04:44:52.274Z,16.06
2018-06-29T04:47:26.808Z,16.10
2018-06-29T04:50:01.107Z,16.15
2018-06-29T04:52:35.984Z,16.16
2018-06-29T04:55:10.929Z,16.22
2018-06-29T04:57:45.898Z,16.20
2018-06-29T05:00:20.032Z,16.31
2018-06-29T05:02:54.257Z,16.37
2018-06-29T05:05:28.770Z,16.53
2018-06-29T05:08:02.788Z,16.65
2018-06-29T05:10:37.567Z,16.78
2018-06-29T05:13:11.663Z,16.90
2018-06-29T05:15:45.737Z,17.20
2018-06-29T05:18:20.030Z,17.32
2018-06-29T05:20:54.438Z,17.49
2018-06-29T05:23:28.425Z,17.76
2018-06-29T05:26:02.649Z,17.89
2018-06-29T05:28:37.158Z,17.79
2018-06-29T05:31:11.288Z,18.03
2018-06-29T05:33:46.240Z,18.15
2018-06-29T05:36:20.709Z,17.76
2018-06-29T05:38:55.035Z,17.41
2018-06-29T05:41:29.953Z,17.33
2018-06-29T05:44:04.896Z,17.33
2018-06-29T05:46:39.229Z,17.16
2018-06-29T05:49:13.365Z,17.11
2018-06-29T05:51:47.616Z,17.03
2018-06-29T05:54:21.687Z,16.97
2018-06-29T05:56:56.018Z,17.03
2018-06-29T05:59:30.618Z,17.03
2018-06-29T06:02:04.845Z,17.10
2018-06-29T06:04:39.134Z,17.15
2018-06-29T06:07:13.278Z,17.19
2018-06-29T06:09:48.334Z,17.16
2018-06-29T06:12:22.446Z,17.29
2018-06-29T06:14:56.999Z,17.59
2018-06-29T06:17:32.876Z,17.56
2018-06-29T06:20:13.813Z,17.65
2018-06-29T06:22:48.648Z,17.68
2018-06-29T06:25:22.669Z,17.70
2018-06-29T06:27:57.422Z,17.69
2018-06-29T06:30:31.613Z,17.97
2018-06-29T06:33:05.984Z,18.08
2018-06-29T06:35:40.289Z,18.06
2018-06-29T06:38:15.119Z,18.36
2018-06-29T06:40:49.579Z,18.35
2018-06-29T06:43:24.545Z,18.27
2018-06-29T06:45:59.504Z,18.13
2018-06-29T06:48:34.062Z,18.20
2018-06-29T06:51:09.171Z,17.89
2018-06-29T06:53:43.198Z,17.99
2018-06-29T06:56:18.164Z,17.96
2018-06-29T06:58:52.396Z,17.91
2018-06-29T07:01:26.525Z,18.25
2018-06-29T07:04:00.488Z,18.77
2018-06-29T07:06:35.023Z,19.18
2018-06-29T07:09:11.647Z,19.26
2018-06-29T07:11:45.880Z,18.95
2018-06-29T07:14:20.640Z,19.16
2018-06-29T07:16:54.723Z,19.28
2018-06-29T07:19:28.802Z,19.32
2018-06-29T07:22:09.452Z,19.20
2018-06-29T07:24:43.840Z,18.98
2018-06-29T07:27:18.708Z,18.76
2018-06-29T07:29:53.892Z,18.65
2018-06-29T07:32:28.643Z,18.57
2018-06-29T07:35:02.784Z,18.58
2018-06-29T07:37:37.593Z,18.47
2018-06-29T07:40:11.717Z,18.56
2018-06-29T07:42:45.885Z,18.47
2018-06-29T07:45:20.034Z,18.52
2018-06-29T07:47:54.773Z,18.51
2018-06-29T07:50:29.570Z,18.55
2018-06-29T07:53:03.836Z,18.40
2018-06-29T07:55:38.229Z,18.60
2018-06-29T07:58:13.804Z,18.48
2018-06-29T08:00:48.032Z,18.74
2018-06-29T08:03:22.598Z,18.84
2018-06-29T08:05:56.777Z,18.75
2018-06-29T08:08:31.251Z,18.81
2018-06-29T08:11:04.079Z,18.69
2018-06-29T08:13:33.346Z,18.95
2018-06-29T08:16:01.939Z,18.77
2018-06-29T08:18:30.887Z,18.75
2018-06-29T08:20:59.429Z,18.67
2018-06-29T08:23:32.921Z,18.77
2018-06-29T08:26:13.261Z,18.74
2018-06-29T08:28:42.749Z,18.68
2018-06-29T08:31:12.211Z,18.76
2018-06-29T08:33:42.309Z,18.50
2018-06-29T08:36:10.896Z,18.57
2018-06-29T08:38:39.182Z,18.47
2018-06-29T08:41:08.666Z,18.58
2018-06-29T08:43:37.757Z,18.76
2018-06-29T08:46:06.430Z,19.05
2018-06-29T08:48:35.007Z,19.24
2018-06-29T08:51:03.774Z,19.37
2018-06-29T08:53:34.986Z,19.63
2018-06-29T08:56:03.678Z,19.56
2018-06-29T08:58:37.522Z,19.55
2018-06-29T09:01:06.270Z,19.29
2018-06-29T09:03:34.316Z,19.60
2018-06-29T09:06:02.537Z,19.35
2018-06-29T09:08:31.011Z,19.01
2018-06-29T09:10:59.984Z,19.12
2018-06-29T09:13:28.144Z,19.13
2018-06-29T09:15:56.615Z,19.12
2018-06-29T09:18:24.797Z,19.05
2018-06-29T09:20:53.669Z,19.05
2018-06-29T09:23:24.120Z,19.10
2018-06-29T09:25:53.503Z,18.95
2018-06-29T09:28:21.587Z,18.75
2018-06-29T09:30:50.602Z,18.78
2018-06-29T09:33:19.628Z,18.85
2018-06-29T09:35:48.635Z,18.74
2018-06-29T09:38:17.250Z,18.80
2018-06-29T09:40:46.186Z,19.04
2018-06-29T09:43:14.838Z,19.20
2018-06-29T09:45:44.076Z,19.19
2018-06-29T09:48:12.259Z,18.95
2018-06-29T09:50:40.886Z,19.09
2018-06-29T09:53:10.434Z,18.66
2018-06-29T09:55:38.557Z,18.93
2018-06-29T09:58:07.055Z,19.28
2018-06-29T10:03:35.857Z,19.50
2018-06-29T10:06:04.064Z,19.79
2018-06-29T10:08:33.291Z,19.78
2018-06-29T10:11:01.726Z,20.72
2018-06-29T10:13:29.988Z,21.09
2018-06-29T10:16:02.791Z,20.79
2018-06-29T10:18:31.829Z,20.78
2018-06-29T10:21:00.524Z,20.40
2018-06-29T10:23:29.677Z,20.69
2018-06-29T10:25:57.739Z,21.07
2018-06-29T10:28:26.034Z,21.26
2018-06-29T10:30:54.255Z,21.30
2018-06-29T10:33:22.535Z,21.22
2018-06-29T10:35:51.355Z,20.79
2018-06-29T10:38:19.714Z,20.13
2018-06-29T10:40:49.678Z,20.02
2018-06-29T10:43:17.731Z,19.73
2018-06-29T10:45:46.646Z,20.01
2018-06-29T10:48:14.781Z,19.71
2018-06-29T10:50:44.033Z,19.71
2018-06-29T10:53:12.080Z,20.05
2018-06-29T10:55:40.877Z,20.06
2018-06-29T10:58:09.931Z,19.72
2018-06-29T11:00:38.229Z,19.94
2018-06-29T11:03:07.748Z,20.01
2018-06-29T11:05:36.390Z,20.08
2018-06-29T11:08:05.616Z,20.52
2018-06-29T11:10:34.823Z,20.18
2018-06-29T11:13:04.093Z,19.62
2018-06-29T11:15:32.241Z,19.63
2018-06-29T11:18:01.030Z,19.55
2018-06-29T11:20:29.670Z,19.94
2018-06-29T11:22:57.964Z,19.79
2018-06-29T11:25:26.237Z,19.79
2018-06-29T11:27:55.155Z,20.24
2018-06-29T11:30:24.134Z,20.52
2018-06-29T11:32:52.689Z,20.33
2018-06-29T11:35:21.007Z,20.02
2018-06-29T11:37:49.224Z,19.95
2018-06-29T11:40:18.081Z,19.90
2018-06-29T11:42:46.942Z,20.09
2018-06-29T11:45:15.079Z,20.42
2018-06-29T11:47:43.401Z,20.65
2018-06-29T11:50:12.487Z,20.72
2018-06-29T11:52:41.262Z,20.54
2018-06-29T11:55:10.583Z,21.05
2018-06-29T11:57:38.595Z,20.87
2018-06-29T12:00:07.063Z,20.79
2018-06-29T12:02:35.231Z,21.03
2018-06-29T12:05:03.680Z,20.87
2018-06-29T12:07:31.688Z,21.16
2018-06-29T12:09:59.914Z,21.03
2018-06-29T12:12:28.312Z,21.06
2018-06-29T12:14:56.824Z,21.35
2018-06-29T12:17:24.923Z,21.34
2018-06-29T12:19:52.966Z,21.77
2018-06-29T12:22:21.375Z,21.62
2018-06-29T12:24:49.553Z,21.79
2018-06-29T12:27:17.940Z,21.58
2018-06-29T12:29:46.337Z,21.55
2018-06-29T12:32:14.808Z,21.57
2018-06-29T12:34:43.282Z,21.78
2018-06-29T12:37:11.301Z,21.28
2018-06-29T12:39:39.369Z,21.39
2018-06-29T12:42:07.662Z,21.04
2018-06-29T12:44:36.129Z,21.04
2018-06-29T12:47:04.519Z,21.04
2018-06-29T12:49:32.879Z,21.32
2018-06-29T12:52:01.087Z,21.15
2018-06-29T12:54:29.571Z,20.70
2018-06-29T12:56:57.970Z,20.73
2018-06-29T12:59:26.024Z,20.60
2018-06-29T13:01:54.520Z,20.38
2018-06-29T13:04:25.914Z,20.18
2018-06-29T13:06:54.136Z,20.34
2018-06-29T13:09:22.291Z,20.43
2018-06-29T13:11:50.816Z,20.14
2018-06-29T13:14:19.230Z,19.93
2018-06-29T13:16:47.850Z,20.32
2018-06-29T13:19:15.893Z,20.32
2018-06-29T13:21:45.302Z,20.19
2018-06-29T13:24:13.399Z,20.57
2018-06-29T13:26:41.727Z,20.39
2018-06-29T13:29:11.912Z,20.39
2018-06-29T13:31:40.029Z,20.46
2018-06-29T13:34:08.337Z,20.34
2018-06-29T13:36:36.367Z,20.26
2018-06-29T13:39:07.690Z,20.14
2018-06-29T13:41:39.600Z,19.98
2018-06-29T13:44:07.804Z,20.18
2018-06-29T13:46:35.850Z,20.80
2018-06-29T13:49:04.968Z,21.29
2018-06-29T13:51:33.503Z,21.58
2018-06-29T13:54:02.955Z,21.71
2018-06-29T13:56:30.943Z,21.74
2018-06-29T13:59:00.084Z,22.35
2018-06-29T14:01:29.522Z,21.98
2018-06-29T14:03:58.688Z,22.06
2018-06-29T14:06:27.082Z,21.67
2018-06-29T14:08:55.467Z,21.31
2018-06-29T14:11:24.655Z,21.09
2018-06-29T14:13:53.608Z,20.77
2018-06-29T14:16:21.839Z,20.38
2018-06-29T14:18:50.847Z,20.50
2018-06-29T14:21:19.441Z,19.94
2018-06-29T14:23:47.489Z,19.92
2018-06-29T14:26:18.511Z,19.77
2018-06-29T14:28:48.140Z,19.76
2018-06-29T14:31:17.489Z,19.90
2018-06-29T14:33:46.291Z,20.28
2018-06-29T14:36:15.370Z,21.79
2018-06-29T14:38:45.046Z,21.92
2018-06-29T14:41:13.405Z,21.80
2018-06-29T14:43:41.850Z,20.61
2018-06-29T14:46:10.492Z,20.19
2018-06-29T14:48:39.344Z,19.94
2018-06-29T14:51:07.751Z,19.87
2018-06-29T14:53:36.673Z,19.85
2018-06-29T14:56:05.557Z,19.54
2018-06-29T14:58:35.092Z,19.68
2018-06-29T15:01:03.249Z,19.35
2018-06-29T15:03:32.561Z,19.23
2018-06-29T15:06:02.167Z,19.39
2018-06-29T15:08:30.229Z,19.63
2018-06-29T15:10:58.897Z,19.62
2018-06-29T15:13:26.979Z,19.54
2018-06-29T15:15:55.858Z,19.65
2018-06-29T15:18:23.836Z,19.66
2018-06-29T15:20:52.184Z,19.36
2018-06-29T15:23:20.989Z,19.38
2018-06-29T15:25:50.572Z,19.46
2018-06-29T15:28:18.651Z,19.36
2018-06-29T15:30:48.041Z,19.31
2018-06-29T15:33:16.918Z,19.31
2018-06-29T15:35:44.947Z,19.31
2018-06-29T15:38:13.333Z,19.31
2018-06-29T15:40:44.903Z,19.19
2018-06-29T15:43:13.696Z,18.98
2018-06-29T15:45:42.766Z,19.11
2018-06-29T15:48:11.129Z,18.98
2018-06-29T15:50:40.168Z,19.00
2018-06-29T15:53:09.143Z,18.90
2018-06-29T15:55:37.332Z,18.99
2018-06-29T15:58:06.777Z,18.99
2018-06-29T16:00:35.000Z,18.87
2018-06-29T16:03:03.961Z,18.93
2018-06-29T16:05:33.943Z,18.77
2018-06-29T16:08:02.418Z,18.84
2018-06-29T16:10:31.115Z,18.63
2018-06-29T16:13:00.067Z,18.62
2018-06-29T16:15:28.389Z,18.53
2018-06-29T16:17:56.481Z,18.49
2018-06-29T16:20:25.110Z,18.34
2018-06-29T16:22:54.191Z,18.44
2018-06-29T16:25:23.509Z,18.28
2018-06-29T16:27:52.338Z,18.24
2018-06-29T16:30:21.816Z,18.16
2018-06-29T16:32:49.793Z,18.23
2018-06-29T16:35:17.847Z,18.23
2018-06-29T16:37:46.679Z,18.15
2018-06-29T16:40:15.563Z,18.17
2018-06-29T16:42:44.505Z,18.10
2018-06-29T16:45:12.737Z,18.25
2018-06-29T16:47:43.125Z,18.31
2018-06-29T16:50:11.245Z,18.21
2018-06-29T16:52:39.988Z,18.04
2018-06-29T16:55:11.020Z,17.80
2018-06-29T16:57:39.060Z,17.83
2018-06-29T17:00:08.261Z,17.78
2018-06-29T17:02:37.616Z,17.76
2018-06-29T17:05:06.073Z,17.71
2018-06-29T17:07:34.326Z,17.69
2018-06-29T17:10:02.496Z,17.67
2018-06-29T17:12:30.500Z,17.52
2018-06-29T17:14:58.795Z,17.54
2018-06-29T17:17:26.774Z,17.42
2018-06-29T17:19:54.962Z,17.49
2018-06-29T17:22:23.171Z,17.53
2018-06-29T17:24:52.643Z,17.54
2018-06-29T17:27:20.990Z,17.56
2018-06-29T17:29:49.335Z,17.44
2018-06-29T17:32:18.102Z,17.42
2018-06-29T17:34:47.396Z,17.46
2018-06-29T17:37:15.994Z,17.43
2018-06-29T17:39:50.357Z,17.47
2018-06-29T17:42:18.572Z,17.46
2018-06-29T17:53:54.347Z,17.19
2018-06-29T18:01:59.080Z,17.00
2018-06-29T18:04:33.367Z,17.07
2018-06-29T18:07:03.137Z,16.99
2018-06-29T18:09:34.365Z,17.03
2018-06-29T18:12:02.871Z,17.05
2018-06-29T18:14:31.671Z,16.98
2018-06-29T18:17:01.328Z,16.87
2018-06-29T18:19:29.907Z,16.91
2018-06-29T18:21:58.458Z,16.89
2018-06-29T18:24:27.315Z,16.82
2018-06-29T18:26:55.860Z,16.76
2018-06-29T18:29:24.949Z,16.64
2018-06-29T18:31:53.029Z,16.58
2018-06-29T18:34:22.557Z,16.68
2018-06-29T18:36:53.432Z,16.60
2018-06-29T18:39:24.037Z,16.60
2018-06-29T18:41:52.521Z,16.52
2018-06-29T18:44:20.860Z,16.50
2018-06-29T18:46:48.990Z,16.43
2018-06-29T18:49:17.509Z,16.33
2018-06-29T18:51:46.014Z,16.26
2018-06-29T18:54:14.690Z,16.33
2018-06-29T18:56:46.400Z,16.42
2018-06-29T18:59:18.203Z,16.37
2018-06-29T19:01:46.556Z,16.33
2018-06-29T19:04:15.207Z,16.21
2018-06-29T19:06:43.713Z,16.12
2018-06-29T19:18:33.724Z,16.18
2018-06-29T19:24:43.562Z,15.93
2018-06-29T19:27:13.381Z,15.96
2018-06-29T19:29:41.501Z,16.04
2018-06-29T19:32:09.705Z,16.10
2018-06-29T19:34:37.592Z,16.17
2018-06-29T19:37:05.771Z,16.11
2018-06-29T19:39:33.645Z,16.14
2018-06-29T19:42:01.613Z,16.07
2018-06-29T19:44:30.405Z,16.06
2018-06-29T19:46:58.285Z,15.99
2018-06-29T19:49:26.150Z,16.02
2018-06-29T19:51:54.066Z,15.85
2018-06-29T19:54:22.022Z,15.91
2018-06-29T19:56:50.237Z,15.92
2018-06-29T19:59:18.534Z,15.87
2018-06-29T20:01:46.504Z,15.82
2018-06-29T20:04:14.498Z,15.95
2018-06-29T20:06:42.725Z,15.76
2018-06-29T20:09:12.179Z,15.94
2018-06-29T20:11:40.127Z,15.98
2018-06-29T20:14:09.202Z,15.97
2018-06-29T20:16:37.048Z,16.01
2018-06-29T20:19:05.766Z,16.02
2018-06-29T20:21:34.360Z,16.14
2018-06-29T20:24:04.399Z,16.07
2018-06-29T20:26:32.421Z,16.05
2018-06-29T20:29:00.463Z,15.99
2018-06-29T20:31:29.532Z,16.02
2018-06-29T20:33:57.851Z,15.99
2018-06-29T20:36:26.069Z,15.98
2018-06-29T20:38:54.109Z,15.98
2018-06-29T20:41:22.327Z,16.05
2018-06-29T20:43:50.341Z,16.01
2018-06-29T20:46:18.090Z,15.91
2018-06-29T20:48:45.955Z,15.87
2018-06-29T20:51:13.880Z,15.90
2018-06-29T20:53:44.046Z,15.78
2018-06-29T20:56:12.082Z,15.83
2018-06-29T20:58:45.917Z,15.79
2018-06-29T21:01:19.917Z,15.70
2018-06-29T21:04:00.375Z,15.62
2018-06-29T21:06:34.214Z,15.69
2018-06-29T21:09:09.572Z,15.57
2018-06-29T21:11:43.515Z,15.63
2018-06-29T21:14:17.473Z,15.58
2018-06-29T21:16:51.382Z,15.51
2018-06-29T21:19:25.670Z,15.56
2018-06-29T21:21:59.645Z,15.38
2018-06-29T21:24:36.854Z,15.47
2018-06-29T21:27:17.004Z,15.51
2018-06-29T21:29:50.803Z,15.41
2018-06-29T21:32:24.604Z,15.39
2018-06-29T21:34:58.522Z,15.48
2018-06-29T21:37:32.371Z,15.41
2018-06-29T21:40:06.353Z,15.37
2018-06-29T21:42:40.189Z,15.31
2018-06-29T21:45:14.138Z,15.30
2018-06-29T21:47:48.083Z,15.31
2018-06-29T21:50:21.946Z,15.33
2018-06-29T21:52:55.735Z,15.33
2018-06-29T21:55:29.572Z,15.28
2018-06-29T21:58:03.741Z,15.34
2018-06-29T22:00:39.734Z,15.42
2018-06-29T22:03:14.035Z,15.34
2018-06-29T22:05:48.076Z,15.29
2018-06-29T22:08:22.022Z,15.24
2018-06-29T22:10:56.011Z,15.11
2018-06-29T22:13:29.842Z,15.24
2018-06-29T22:16:03.917Z,15.21
2018-06-29T22:18:38.129Z,15.13
2018-06-29T22:21:12.127Z,15.11
2018-06-29T22:23:45.979Z,15.22
2018-06-29T22:26:19.922Z,15.14
2018-06-29T22:28:54.051Z,15.15
2018-06-29T22:31:27.920Z,15.16
2018-06-29T22:34:01.997Z,15.15
2018-06-29T22:36:35.955Z,15.07
2018-06-29T22:39:11.184Z,15.09
2018-06-29T22:41:45.161Z,15.00
2018-06-29T22:44:19.040Z,14.93
2018-06-29T22:46:53.042Z,14.90
2018-06-29T22:49:26.959Z,14.98
2018-06-29T22:52:00.997Z,14.94
2018-06-29T22:54:34.779Z,14.92
2018-06-29T22:57:08.656Z,14.91
2018-06-29T22:59:42.771Z,14.89
2018-06-29T23:02:16.734Z,14.85
2018-06-29T23:04:50.628Z,14.73
2018-06-29T23:07:24.911Z,14.87
2018-06-29T23:09:58.949Z,14.82
2018-06-29T23:12:32.752Z,14.81
2018-06-29T23:15:06.722Z,14.76
2018-06-29T23:17:40.888Z,14.76
2018-06-29T23:20:14.771Z,14.88
2018-06-29T23:22:48.704Z,14.83
2018-06-29T23:25:23.046Z,14.87
2018-06-29T23:27:56.921Z,14.93
2018-06-29T23:30:30.908Z,14.89
2018-06-29T23:33:04.946Z,14.90
2018-06-29T23:35:38.929Z,14.96
2018-06-29T23:38:12.889Z,14.68
2018-06-29T23:40:46.844Z,14.73
2018-06-29T23:43:20.817Z,14.78
2018-06-29T23:45:54.603Z,14.80
2018-06-29T23:48:28.652Z,14.95
2018-06-29T23:51:02.578Z,14.76
2018-06-29T23:53:36.811Z,14.83
2018-06-29T23:56:10.605Z,14.77
2018-06-29T23:58:44.726Z,14.62
